Latest Weather Observations for Williamson

IDQ60801

Issued at 12:35 pm EST Thursday 23 October 2014 (issued every 30 minutes, with the page automatically refreshed every 10 minutes)

About weather observations | Map of weather stations | Latest weather observations for QLD | Other Formats
Station Details ID: 033195 Name: WILLIAMSON Lat: -22.47 Lon: 150.18 Height: 27.6 m
Data from the previous 72 hours. | See also: Recent months at Williamson
Date/Time
EST
Temp
°C
App
Temp
°C
Dew
Point
Rel
Hum
%
Delta-T
°C
Wind Press
QNH
hPa
Press
MSL
hPa
Rain
since 9 am
mm
Dir
 
Spd
km/h
Gust
km/h
Spd
kts
Gust
kts
23/12:30pm 27.8 24.8 12.6 39 8.9 ENE 20 32 11 17 1018.2 1018.1 0.0
23/12:00pm 28.0 25.0 12.0 37 9.2 NE 19 28 10 15 1018.6 1018.5 0.0
23/11:30am 28.7 25.7 10.8 33 10.2 E 17 22 9 12 1019.0 1018.9 0.0
23/11:00am 28.9 26.9 10.1 31 10.6 NE 11 20 6 11 1019.3 1019.2 0.0
23/10:30am 27.9 25.8 9.7 32 10.1 SE 11 20 6 11 1019.9 1019.8 0.0
23/10:00am 26.8 23.3 8.7 32 9.8 S 17 28 9 15 1020.4 1020.3 0.0
23/09:30am 26.0 23.6 8.5 33 9.5 ENE 11 19 6 10 1020.5 1020.4 0.0
23/09:00am 25.6 22.8 8.6 34 9.2 E 13 24 7 13 1020.8 1020.7 0.0
23/08:30am 24.8 22.2 7.9 34 8.9 SE 11 20 6 11 1021.0 1020.9 0.0
23/08:00am 23.0 21.6 12.3 51 6.1 SE 11 17 6 9 1021.0 1020.9 0.0
23/07:30am 21.2 20.4 14.1 64 4.1 S 11 17 6 9 1021.0 1020.9 0.0
23/07:00am 19.4 18.3 14.4 73 2.9 S 13 17 7 9 1021.0 1020.9 0.0
23/06:30am 17.3 18.4 14.6 84 1.6 SSE 2 7 1 4 1020.9 1020.8 0.0
23/06:00am 14.7 15.1 13.7 94 0.6 SSE 4 7 2 4 1020.7 1020.6 0.0
23/05:30am 13.3 13.6 12.2 93 0.6 S 2 6 1 3 1020.5 1020.4 0.0
23/05:00am 13.5 14.1 11.9 90 0.9 CALM 0 0 0 0 1020.3 1020.2 0.0
23/04:30am 14.1 14.9 12.7 91 0.8 CALM 0 0 0 0 1020.2 1020.1 0.0
23/04:00am 14.5 15.3 12.7 89 1.0 CALM 0 0 0 0 1019.9 1019.8 0.0
23/03:30am 15.4 16.4 13.2 87 1.2 CALM 0 0 0 0 1019.9 1019.8 0.0
23/03:00am 16.2 16.3 14.0 87 1.2 SSW 6 7 3 4 1020.1 1020.0 0.0
23/02:30am 17.0 18.1 14.5 85 1.4 S 2 6 1 3 1020.1 1020.0 0.0
23/02:00am 17.9 17.9 14.2 79 2.1 SW 7 9 4 5 1020.4 1020.3 0.0
23/01:30am 19.8 20.2 14.8 73 2.9 E 6 15 3 8 1020.6 1020.5 0.0
23/01:00am 19.9 20.8 15.1 74 2.8 E 4 7 2 4 1021.0 1020.9 0.0
23/12:30am 20.4 20.5 15.4 73 3.0 E 9 17 5 9 1021.2 1021.1 0.0
23/12:00am 20.6 20.7 15.4 72 3.1 ESE 9 19 5 10 1021.5 1021.4 0.0
 
Date/Time
EST
Temp
°C
App
Temp
°C
Dew
Point
Rel
Hum
%
Delta-T
°C
Wind Press
QNH
hPa
Press
MSL
hPa
Rain
since 9 am
mm
Dir
 
Spd
km/h
Gust
km/h
Spd
kts
Gust
kts
22/11:30pm 20.8 20.5 15.4 71 3.2 E 11 24 6 13 1021.5 1021.4 0.0
22/11:00pm 21.1 20.0 15.4 70 3.4 E 15 24 8 13 1021.6 1021.5 0.0
22/10:30pm 20.9 20.9 15.2 70 3.4 E 9 17 5 9 1021.6 1021.5 0.0
22/10:00pm 21.0 21.0 15.1 69 3.5 E 9 17 5 9 1021.4 1021.3 0.0
22/09:30pm 21.0 21.3 15.1 69 3.5 ESE 7 15 4 8 1021.3 1021.2 0.0
22/09:00pm 20.9 20.7 14.8 68 3.6 E 9 13 5 7 1021.1 1021.0 0.0
22/08:30pm 21.1 20.4 14.3 65 4.0 E 11 19 6 10 1021.0 1020.9 0.0
22/08:00pm 21.2 19.6 13.9 63 4.2 E 15 24 8 13 1020.9 1020.8 0.0
22/07:30pm 21.5 19.2 12.9 58 4.9 ESE 17 28 9 15 1020.8 1020.7 0.0
22/07:00pm 21.9 19.0 12.2 54 5.5 ESE 19 33 10 18 1020.6 1020.5 0.0
22/06:30pm 22.1 20.4 12.6 55 5.4 E 13 20 7 11 1020.3 1020.2 0.0
22/06:00pm 22.8 21.2 12.7 53 5.8 E 13 22 7 12 1020.0 1019.9 0.0
22/05:30pm 23.9 21.9 12.8 49 6.4 E 15 24 8 13 1019.6 1019.5 0.0
22/05:00pm 25.0 22.3 12.9 47 7.0 E 19 28 10 15 1019.2 1019.1 0.0
22/04:30pm 25.4 22.4 12.6 45 7.4 E 20 33 11 18 1018.8 1018.7 0.0
22/04:00pm 27.1 24.5 13.1 42 8.2 E 19 32 10 17 1018.6 1018.5 0.0
22/03:30pm 27.1 25.0 12.3 39 8.6 SE 15 26 8 14 1018.5 1018.4 0.0
22/03:00pm 27.4 25.1 11.8 38 9.0 E 15 26 8 14 1018.5 1018.4 0.0
22/02:30pm 27.4 23.9 11.0 36 9.3 SSE 20 28 11 15 1018.7 1018.6 0.0
22/02:00pm 28.6 26.4 12.1 36 9.6 E 15 22 8 12 1019.0 1018.9 0.0
22/01:30pm 27.7 25.3 12.5 39 8.9 ESE 17 33 9 18 1019.4 1019.3 0.0
22/01:00pm 27.0 24.4 11.9 39 8.7 E 17 26 9 14 1019.8 1019.7 0.0
22/12:30pm 26.6 24.5 12.3 41 8.3 E 15 28 8 15 1020.2 1020.1 0.0
22/12:00pm 27.4 24.4 11.8 38 9.0 SSE 19 33 10 18 1020.8 1020.7 0.0
22/11:30am 26.7 24.5 12.0 40 8.5 ESE 15 26 8 14 1021.2 1021.1 0.0
22/11:00am 26.1 24.2 12.9 44 7.7 SE 15 22 8 12 1021.7 1021.6 0.0
22/10:30am 26.3 24.9 13.4 45 7.6 ESE 13 28 7 15 1022.0 1021.9 0.0
22/10:00am 25.6 24.0 13.8 48 6.9 ESE 15 24 8 13 1022.1 1022.0 0.0
22/09:30am 25.2 24.7 14.9 52 6.2 SE 11 20 6 11 1022.3 1022.2 0.0
22/09:00am 25.2 23.6 14.9 52 6.2 E 17 24 9 13 1022.5 1022.4 0.0
22/08:30am 24.1 23.1 15.6 59 5.1 E 15 26 8 14 1022.6 1022.5 0.0
22/08:00am 23.0 22.8 15.8 64 4.3 SSE 11 24 6 13 1022.6 1022.5 0.0
22/07:30am 22.0 22.2 15.8 68 3.7 S 9 15 5 8 1022.7 1022.6 0.0
22/07:00am 21.0 20.9 16.0 73 3.0 SSW 11 15 6 8 1022.6 1022.5 0.0
22/06:30am 19.8 20.1 15.9 78 2.3 S 9 13 5 7 1022.3 1022.2 0.0
22/06:00am 19.1 19.7 15.8 81 2.0 S 7 9 4 5 1022.0 1021.9 0.0
22/05:30am 18.6 19.2 15.3 81 1.9 S 6 9 3 5 1021.8 1021.7 0.0
22/05:00am 18.9 20.5 14.8 77 2.4 CALM 0 0 0 0 1021.7 1021.6 0.0
22/04:30am 19.0 19.0 14.3 74 2.7 SSW 7 9 4 5 1021.3 1021.2 0.0
22/04:00am 20.4 21.3 15.0 71 3.2 ESE 4 9 2 5 1021.2 1021.1 0.0
22/03:30am 20.8 20.7 14.9 69 3.5 ESE 9 15 5 8 1021.3 1021.2 0.0
22/03:00am 21.1 20.5 14.7 67 3.7 ESE 11 19 6 10 1021.4 1021.3 0.0
22/02:30am 21.1 20.9 14.7 67 3.8 E 9 19 5 10 1021.8 1021.7 0.0
22/02:00am 21.1 20.5 14.5 66 3.9 E 11 17 6 9 1021.8 1021.7 0.0
22/01:30am 20.8 20.1 14.2 66 3.8 E 11 19 6 10 1022.1 1022.0 0.0
22/01:00am 21.1 20.3 14.0 64 4.1 ESE 11 19 6 10 1022.6 1022.5 0.0
22/12:30am 20.9 20.0 13.8 64 4.1 E 11 17 6 9 1023.0 1022.9 0.0
22/12:00am 20.8 19.3 14.2 66 3.8 E 15 22 8 12 1023.5 1023.4 0.0
 
Date/Time
EST
Temp
°C
App
Temp
°C
Dew
Point
Rel
Hum
%
Delta-T
°C
Wind Press
QNH
hPa
Press
MSL
hPa
Rain
since 9 am
mm
Dir
 
Spd
km/h
Gust
km/h
Spd
kts
Gust
kts
21/11:30pm 20.6 19.8 14.0 66 3.8 ESE 11 17 6 9 1023.7 1023.6 0.0
21/11:00pm 20.7 19.5 13.9 65 3.9 ESE 13 22 7 12 1023.9 1023.8 0.0
21/10:30pm 20.6 19.3 13.8 65 3.9 E 13 22 7 12 1024.1 1024.0 0.0
21/10:00pm 20.7 19.0 13.6 64 4.1 E 15 22 8 12 1024.2 1024.1 0.0
21/09:30pm 20.9 19.1 13.4 62 4.3 E 15 22 8 12 1023.9 1023.8 0.0
21/09:00pm 21.0 18.8 13.2 61 4.4 E 17 30 9 16 1023.9 1023.8 0.0
21/08:30pm 20.9 19.1 13.4 62 4.3 E 15 26 8 14 1023.7 1023.6 0.0
21/08:00pm 21.1 19.4 13.5 62 4.4 ESE 15 26 8 14 1023.5 1023.4 0.0
21/07:30pm 21.0 19.8 12.7 59 4.7 E 11 20 6 11 1023.3 1023.2 0.0
21/07:00pm 21.6 20.0 12.7 57 5.0 E 13 22 7 12 1023.0 1022.9 0.0
21/06:30pm 22.2 20.1 12.5 54 5.5 E 15 22 8 12 1022.5 1022.4 0.0
21/06:00pm 23.3 21.4 11.7 48 6.5 E 13 22 7 12 1022.0 1021.9 0.0
21/05:30pm 24.8 22.4 9.9 39 8.2 E 13 22 7 12 1021.7 1021.6 0.0
21/05:00pm 25.6 22.7 9.8 37 8.7 ESE 15 26 8 14 1021.3 1021.2 0.0
21/04:30pm 26.1 22.8 9.4 35 9.2 ESE 17 30 9 16 1020.9 1020.8 0.0
21/04:00pm 26.1 23.0 10.3 37 8.8 ESE 17 28 9 15 1020.5 1020.4 0.0
21/03:30pm 26.0 23.3 11.7 41 8.2 E 17 28 9 15 1020.6 1020.5 0.0
21/03:00pm 26.6 23.4 11.9 40 8.4 ESE 20 33 11 18 1020.9 1020.8 0.0
21/02:30pm 27.5 24.5 11.9 38 9.0 E 19 30 10 16 1020.8 1020.7 0.0
21/02:00pm 28.2 25.4 12.5 37 9.1 E 19 28 10 15 1021.0 1020.9 0.0
21/01:30pm 27.3 23.7 10.5 35 9.5 E 20 33 11 18 1021.2 1021.1 0.0
21/01:00pm 27.4 23.6 11.0 36 9.3 E 22 30 12 16 1021.5 1021.4 0.0
21/12:30pm 27.2 24.6 10.8 36 9.3 SE 15 20 8 11 1022.1 1022.0 0.0
21/12:00pm 27.2 23.8 10.4 35 9.4 SE 19 30 10 16 1022.4 1022.3 0.0
21/11:30am 26.4 23.4 10.5 37 8.9 SE 17 32 9 17 1022.8 1022.7 0.0
21/11:00am 26.1 22.7 11.4 39 8.3 SE 20 32 11 17 1023.3 1023.2 0.0
21/10:30am 26.9 24.4 12.2 40 8.5 E 17 30 9 16 1023.5 1023.4 0.0
21/10:00am 25.2 22.0 13.1 47 7.0 E 22 35 12 19 1023.6 1023.5 0.0
21/09:30am 25.7 23.0 12.9 45 7.4 E 19 28 10 15 1023.6 1023.5 0.0
21/09:00am 25.5 23.2 14.0 49 6.8 E 19 28 10 15 1023.6 1023.5 0.0
21/08:30am 24.9 23.4 14.1 51 6.4 E 15 28 8 15 1023.7 1023.6 0.0
21/08:00am 23.1 20.7 14.4 58 5.1 ESE 20 37 11 20 1023.6 1023.5 0.0
21/07:30am 22.3 22.1 14.7 62 4.5 SSE 9 19 5 10 1023.2 1023.1 0.0
21/07:00am 19.5 18.3 13.9 70 3.2 SSW 13 17 7 9 1023.2 1023.1 0.0
21/06:30am 17.5 17.3 13.6 78 2.2 S 7 11 4 6 1022.9 1022.8 0.0
21/06:00am 15.9 15.1 13.0 83 1.6 SSW 9 13 5 7 1022.6 1022.5 0.0
21/05:30am 15.6 15.8 13.1 85 1.4 WSW 4 11 2 6 1022.2 1022.1 0.0
21/05:00am 16.0 15.6 12.9 82 1.7 S 7 13 4 7 1021.6 1021.5 0.0
21/04:30am 16.4 16.2 13.1 81 1.8 SSE 6 11 3 6 1021.4 1021.3 0.0
21/04:00am 15.9 15.9 12.3 79 2.0 S 4 9 2 5 1021.2 1021.1 0.0
21/03:30am 15.8 15.7 13.3 85 1.4 SE 6 9 3 5 1021.0 1020.9 0.0
21/03:00am 15.2 15.8 11.8 80 1.8 CALM 0 0 0 0 1021.2 1021.1 0.0
21/02:30am 15.7 16.3 11.9 78 2.1 CALM 0 0 0 0 1021.2 1021.1 0.0
21/02:00am 18.5 19.0 12.7 69 3.2 ESE 2 7 1 4 1021.3 1021.2 0.0
21/01:30am 19.3 19.0 13.2 68 3.5 SE 7 11 4 6 1021.8 1021.7 0.0
21/01:00am 19.1 18.7 13.1 68 3.4 SE 7 11 4 6 1021.9 1021.8 0.0
21/12:30am 19.4 19.2 12.9 66 3.7 E 6 17 3 9 1022.4 1022.3 0.0
21/12:00am 19.9 18.7 12.9 64 3.9 E 11 20 6 11 1022.6 1022.5 0.0
 
Date/Time
EST
Temp
°C
App
Temp
°C
Dew
Point
Rel
Hum
%
Delta-T
°C
Wind Press
QNH
hPa
Press
MSL
hPa
Rain
since 9 am
mm
Dir
 
Spd
km/h
Gust
km/h
Spd
kts
Gust
kts
20/11:30pm 20.0 18.5 13.0 64 4.0 ESE 13 19 7 10 1023.1 1023.0 0.0
20/11:00pm 19.8 19.2 13.5 67 3.6 E 9 13 5 7 1023.5 1023.4 0.0
20/10:30pm 19.6 19.5 13.8 69 3.3 E 7 11 4 6 1023.7 1023.6 0.0
20/10:00pm 19.8 19.8 13.7 68 3.5 E 6 9 3 5 1023.6 1023.5 0.0
20/09:30pm 20.1 19.7 14.0 68 3.5 E 9 17 5 9 1023.5 1023.4 0.0
20/09:00pm 20.6 19.8 14.0 66 3.8 E 11 20 6 11 1023.3 1023.2 0.0
20/08:30pm 20.3 20.2 14.0 67 3.6 E 7 20 4 11 1022.8 1022.7 0.0
20/08:00pm 20.5 20.4 13.9 66 3.8 E 7 17 4 9 1022.4 1022.3 0.0
20/07:30pm 20.8 20.7 14.0 65 3.9 E 7 13 4 7 1022.1 1022.0 0.0
20/07:00pm 21.3 20.0 13.7 62 4.4 ENE 13 20 7 11 1021.5 1021.4 0.0
20/06:30pm 21.8 20.6 12.9 57 5.1 E 11 19 6 10 1021.1 1021.0 0.0
20/06:00pm 22.8 20.7 12.4 52 5.9 E 15 26 8 14 1020.9 1020.8 0.0
20/05:30pm 24.1 22.4 12.4 48 6.7 E 13 24 7 13 1020.3 1020.2 0.0
20/05:00pm 24.7 21.7 12.6 47 7.0 ENE 20 33 11 18 1019.9 1019.8 0.0
20/04:30pm 25.2 23.2 14.0 49 6.6 ENE 17 28 9 15 1019.3 1019.2 0.0
20/04:00pm 25.2 22.1 13.4 48 6.9 ENE 22 39 12 21 1019.1 1019.0 0.0
20/03:30pm 25.8 22.2 13.0 45 7.5 ENE 24 37 13 20 1018.9 1018.8 0.0
20/03:00pm 26.8 23.7 12.1 40 8.5 E 20 33 11 18 1018.8 1018.7 0.0
20/02:30pm 26.5 23.5 12.5 41 8.1 E 20 32 11 17 1019.2 1019.1 0.0
20/02:00pm 27.3 24.2 12.1 39 8.8 ENE 20 44 11 24 1019.5 1019.4 0.0
20/01:30pm 27.4 24.0 11.4 37 9.1 ENE 20 37 11 20 1019.9 1019.8 0.0
20/01:00pm 27.2 23.9 11.7 38 8.9 ENE 20 32 11 17 1020.2 1020.1 0.0

Other Formats:

Comma delimited format used in spreadsheet applications
http://www.bom.gov.au/fwo/IDQ60801/IDQ60801.95370.axf

JavaScript Object Notation format (JSON) in row-major order
http://www.bom.gov.au/fwo/IDQ60801/IDQ60801.95370.json